Time,TemperatureF,DewpointF,PressureIn,WindDirection,WindDirectionDegrees,WindSpeedMPH,WindSpeedGustMPH,Humidity,HourlyPrecipIn,Conditions,Clouds,dailyrainin,SolarRadiationWatts/m^2,SoftwareType,DateUTC
2013-06-19 00:06:00,51.7,49.0,30.11,ESE,109,0.0,0.0,89,0.00,,,0.00,0,weatherlink.com 1.10,2013-06-19 05:06:00,
2013-06-19 00:21:00,51.1,49.0,30.11,ESE,109,0.0,0.0,91,0.00,,,0.00,0,weatherlink.com 1.10,2013-06-19 05:21:00,
2013-06-19 00:36:00,50.6,48.0,30.12,ESE,109,0.0,0.0,92,0.00,,,0.00,0,weatherlink.com 1.10,2013-06-19 05:36:00,
2013-06-19 00:51:00,50.5,48.0,30.12,ESE,109,0.0,0.0,92,0.00,,,0.00,0,weatherlink.com 1.10,2013-06-19 05:51:00,
2013-06-19 01:06:00,50.1,48.0,30.12,ESE,109,0.0,0.0,92,0.00,,,0.00,0,weatherlink.com 1.10,2013-06-19 06:06:00,
2013-06-19 01:21:00,49.7,48.0,30.12,ESE,109,0.0,0.0,92,0.00,,,0.00,0,weatherlink.com 1.10,2013-06-19 06:21:00,
2013-06-19 01:36:00,49.8,48.0,30.13,ESE,109,0.0,1.0,94,0.00,,,0.00,0,weatherlink.com 1.10,2013-06-19 06:36:00,
2013-06-19 01:51:00,49.8,48.0,30.13,ESE,109,0.0,0.0,94,0.00,,,0.00,0,weatherlink.com 1.10,2013-06-19 06:51:00,
2013-06-19 02:06:00,49.2,47.0,30.12,ESE,109,0.0,0.0,93,0.00,,,0.00,0,weatherlink.com 1.10,2013-06-19 07:06:00,
2013-06-19 02:21:00,48.9,47.0,30.13,ESE,109,0.0,0.0,94,0.00,,,0.00,0,weatherlink.com 1.10,2013-06-19 07:21:00,
2013-06-19 02:36:00,49.2,48.0,30.13,ESE,109,0.0,0.0,95,0.00,,,0.00,0,weatherlink.com 1.10,2013-06-19 07:36:00,
2013-06-19 02:51:00,49.2,48.0,30.14,ESE,109,0.0,0.0,94,0.00,,,0.00,0,weatherlink.com 1.10,2013-06-19 07:51:00,
2013-06-19 03:06:00,48.9,47.0,30.14,ESE,109,0.0,0.0,94,0.00,,,0.00,0,weatherlink.com 1.10,2013-06-19 08:06:00,
2013-06-19 03:21:00,49.0,48.0,30.14,ESE,109,0.0,0.0,95,0.00,,,0.00,0,weatherlink.com 1.10,2013-06-19 08:21:00,
2013-06-19 03:36:00,49.2,48.0,30.14,ESE,109,0.0,0.0,95,0.00,,,0.00,0,weatherlink.com 1.10,2013-06-19 08:36:00,
2013-06-19 03:51:00,49.0,48.0,30.14,ESE,109,0.0,0.0,95,0.00,,,0.00,0,weatherlink.com 1.10,2013-06-19 08:51:00,
2013-06-19 04:06:00,48.7,47.0,30.14,ESE,109,0.0,0.0,95,0.00,,,0.00,0,weatherlink.com 1.10,2013-06-19 09:06:00,
2013-06-19 04:22:00,48.3,47.0,30.13,ESE,109,0.0,0.0,94,0.00,,,0.00,0,weatherlink.com 1.10,2013-06-19 09:22:00,
2013-06-19 04:37:00,47.7,46.0,30.14,ESE,109,0.0,0.0,94,0.00,,,0.00,0,weatherlink.com 1.10,2013-06-19 09:37:00,
2013-06-19 04:53:00,47.3,46.0,30.14,ESE,109,0.0,0.0,95,0.00,,,0.00,0,weatherlink.com 1.10,2013-06-19 09:53:00,
2013-06-19 05:07:00,47.2,46.0,30.14,ESE,109,0.0,0.0,95,0.00,,,0.00,0,weatherlink.com 1.10,2013-06-19 10:07:00,
2013-06-19 05:22:00,47.2,46.0,30.13,ESE,109,0.0,0.0,96,0.00,,,0.00,5,weatherlink.com 1.10,2013-06-19 10:22:00,
2013-06-19 05:37:00,47.2,46.0,30.14,ESE,109,0.0,0.0,96,0.00,,,0.00,12,weatherlink.com 1.10,2013-06-19 10:37:00,
2013-06-19 05:52:00,47.3,46.0,30.14,NE,37,0.0,1.0,96,0.00,,,0.00,23,weatherlink.com 1.10,2013-06-19 10:52:00,
2013-06-19 06:07:00,49.0,48.0,30.14,NE,37,1.0,1.0,96,0.00,,,0.00,54,weatherlink.com 1.10,2013-06-19 11:07:00,
2013-06-19 06:22:00,50.6,50.0,30.15,NE,37,0.0,0.0,96,0.00,,,0.00,86,weatherlink.com 1.10,2013-06-19 11:22:00,
2013-06-19 06:37:00,53.0,50.0,30.16,NE,37,0.0,0.0,89,0.00,,,0.00,123,weatherlink.com 1.10,2013-06-19 11:37:00,
2013-06-19 06:52:00,55.2,51.0,30.16,NE,37,0.0,1.0,84,0.00,,,0.00,165,weatherlink.com 1.10,2013-06-19 11:52:00,
2013-06-19 07:07:00,56.8,51.0,30.16,NE,37,0.0,0.0,81,0.00,,,0.00,204,weatherlink.com 1.10,2013-06-19 12:07:00,
2013-06-19 07:22:00,59.1,51.0,30.17,NE,37,0.0,0.0,75,0.00,,,0.00,253,weatherlink.com 1.10,2013-06-19 12:22:00,
2013-06-19 07:37:00,60.9,53.0,30.17,NE,37,0.0,0.0,76,0.00,,,0.00,297,weatherlink.com 1.10,2013-06-19 12:37:00,
2013-06-19 07:52:00,62.3,52.0,30.17,NE,38,0.0,1.0,69,0.00,,,0.00,345,weatherlink.com 1.10,2013-06-19 12:52:00,
2013-06-19 08:08:00,62.9,51.0,30.16,ESE,110,0.0,2.0,66,0.00,,,0.00,390,weatherlink.com 1.10,2013-06-19 13:08:00,
2013-06-19 08:23:00,63.8,52.0,30.17,ESE,110,1.0,2.0,65,0.00,,,0.00,434,weatherlink.com 1.10,2013-06-19 13:23:00,
2013-06-19 08:38:00,64.6,52.0,30.17,ESE,115,2.0,2.0,64,0.00,,,0.00,482,weatherlink.com 1.10,2013-06-19 13:38:00,
2013-06-19 08:53:00,65.2,53.0,30.16,ESE,117,0.0,2.0,65,0.00,,,0.00,526,weatherlink.com 1.10,2013-06-19 13:53:00,
2013-06-19 09:08:00,66.5,53.0,30.16,SE,126,0.0,2.0,63,0.00,,,0.00,566,weatherlink.com 1.10,2013-06-19 14:08:00,
2013-06-19 09:23:00,67.5,54.0,30.16,South,173,1.0,2.0,62,0.00,,,0.00,606,weatherlink.com 1.10,2013-06-19 14:23:00,
2013-06-19 09:38:00,68.3,54.0,30.16,South,174,0.0,2.0,60,0.00,,,0.00,643,weatherlink.com 1.10,2013-06-19 14:38:00,
2013-06-19 09:53:00,69.1,55.0,30.16,South,171,0.0,2.0,62,0.00,,,0.00,680,weatherlink.com 1.10,2013-06-19 14:53:00,
2013-06-19 10:08:00,69.6,54.0,30.16,SSW,198,2.0,3.0,57,0.00,,,0.00,715,weatherlink.com 1.10,2013-06-19 15:08:00,
2013-06-19 10:23:00,69.2,54.0,30.16,SSW,205,0.0,3.0,59,0.00,,,0.00,751,weatherlink.com 1.10,2013-06-19 15:23:00,
2013-06-19 10:38:00,69.7,53.0,30.15,SSW,208,1.0,3.0,56,0.00,,,0.00,786,weatherlink.com 1.10,2013-06-19 15:38:00,
2013-06-19 10:53:00,70.8,55.0,30.15,SSW,211,1.0,3.0,57,0.00,,,0.00,810,weatherlink.com 1.10,2013-06-19 15:53:00,
2013-06-19 11:08:00,71.3,55.0,30.15,SW,224,1.0,2.0,56,0.00,,,0.00,833,weatherlink.com 1.10,2013-06-19 16:08:00,
2013-06-19 11:23:00,72.1,54.0,30.15,SSW,212,3.0,4.0,54,0.00,,,0.00,861,weatherlink.com 1.10,2013-06-19 16:23:00,
2013-06-19 11:38:00,72.3,53.0,30.15,South,185,1.0,2.0,51,0.00,,,0.00,789,weatherlink.com 1.10,2013-06-19 16:38:00,
2013-06-19 11:53:00,73.1,54.0,30.15,SSW,210,0.0,2.0,52,0.00,,,0.00,902,weatherlink.com 1.10,2013-06-19 16:53:00,
2013-06-19 12:08:00,72.8,56.0,30.15,NW,305,0.0,3.0,56,0.00,,,0.00,896,weatherlink.com 1.10,2013-06-19 17:08:00,
2013-06-19 12:23:00,73.4,56.0,30.15,NW,305,2.0,5.0,54,0.00,,,0.00,926,weatherlink.com 1.10,2013-06-19 17:23:00,
2013-06-19 12:38:00,73.7,56.0,30.14,West,278,1.0,2.0,54,0.00,,,0.00,926,weatherlink.com 1.10,2013-06-19 17:38:00,
2013-06-19 12:53:00,73.8,57.0,30.14,WSW,252,0.0,3.0,55,0.00,,,0.00,928,weatherlink.com 1.10,2013-06-19 17:53:00,
2013-06-19 13:08:00,74.5,53.0,30.14,SSE,167,0.0,2.0,47,0.00,,,0.00,930,weatherlink.com 1.10,2013-06-19 18:08:00,
2013-06-19 13:23:00,74.7,55.0,30.13,ESE,117,1.0,2.0,50,0.00,,,0.00,928,weatherlink.com 1.10,2013-06-19 18:23:00,
2013-06-19 13:38:00,75.1,54.0,30.13,SSE,167,0.0,2.0,48,0.00,,,0.00,926,weatherlink.com 1.10,2013-06-19 18:38:00,
2013-06-19 13:53:00,74.9,53.0,30.12,SE,132,1.0,4.0,46,0.00,,,0.00,918,weatherlink.com 1.10,2013-06-19 18:53:00,
2013-06-19 14:08:00,75.1,56.0,30.12,SSW,203,0.0,3.0,51,0.00,,,0.00,912,weatherlink.com 1.10,2013-06-19 19:08:00,
2013-06-19 14:23:00,76.3,55.0,30.11,South,185,0.0,2.0,47,0.00,,,0.00,896,weatherlink.com 1.10,2013-06-19 19:23:00,
2013-06-19 14:38:00,76.6,54.0,30.11,WSW,237,0.0,3.0,46,0.00,,,0.00,882,weatherlink.com 1.10,2013-06-19 19:38:00,
2013-06-19 14:53:00,76.6,53.0,30.11,SSE,162,0.0,3.0,44,0.00,,,0.00,863,weatherlink.com 1.10,2013-06-19 19:53:00,
2013-06-19 15:09:00,76.5,53.0,30.11,WSW,251,2.0,5.0,44,0.00,,,0.00,840,weatherlink.com 1.10,2013-06-19 20:09:00,
2013-06-19 15:24:00,76.4,55.0,30.10,WSW,244,3.0,4.0,48,0.00,,,0.00,819,weatherlink.com 1.10,2013-06-19 20:24:00,
2013-06-19 15:39:00,76.3,52.0,30.10,SW,230,0.0,4.0,43,0.00,,,0.00,789,weatherlink.com 1.10,2013-06-19 20:39:00,
2013-06-19 15:54:00,77.1,53.0,30.10,South,190,1.0,4.0,44,0.00,,,0.00,758,weatherlink.com 1.10,2013-06-19 20:54:00,
2013-06-19 16:09:00,77.7,51.0,30.09,WSW,241,0.0,3.0,39,0.00,,,0.00,726,weatherlink.com 1.10,2013-06-19 21:09:00,
2013-06-19 16:24:00,77.8,57.0,30.09,SW,220,0.0,1.0,49,0.00,,,0.00,691,weatherlink.com 1.10,2013-06-19 21:24:00,
2013-06-19 16:39:00,78.1,54.0,30.09,WSW,243,4.0,4.0,43,0.00,,,0.00,654,weatherlink.com 1.10,2013-06-19 21:39:00,
2013-06-19 16:54:00,76.8,53.0,30.09,South,184,0.0,6.0,44,0.00,,,0.00,610,weatherlink.com 1.10,2013-06-19 21:54:00,
2013-06-19 17:09:00,77.8,53.0,30.08,WSW,248,1.0,4.0,42,0.00,,,0.00,573,weatherlink.com 1.10,2013-06-19 22:09:00,
2013-06-19 17:24:00,77.9,55.0,30.08,SW,227,0.0,1.0,45,0.00,,,0.00,527,weatherlink.com 1.10,2013-06-19 22:24:00,
2013-06-19 17:39:00,77.8,55.0,30.09,SSW,208,0.0,2.0,46,0.00,,,0.00,480,weatherlink.com 1.10,2013-06-19 22:39:00,
2013-06-19 18:09:00,77.7,56.0,30.09,WSW,248,4.0,7.0,47,0.00,,,0.00,388,weatherlink.com 1.10,2013-06-19 23:09:00,
2013-06-19 18:24:00,76.7,55.0,30.08,South,189,1.0,4.0,48,0.00,,,0.00,348,weatherlink.com 1.10,2013-06-19 23:24:00,
2013-06-19 18:39:00,75.8,54.0,30.08,WSW,244,1.0,7.0,47,0.00,,,0.00,302,weatherlink.com 1.10,2013-06-19 23:39:00,
2013-06-19 18:54:00,75.7,54.0,30.08,SW,227,0.0,7.0,47,0.00,,,0.00,258,weatherlink.com 1.10,2013-06-19 23:54:00,
2013-06-19 19:09:00,76.0,54.0,30.08,SW,221,0.0,2.0,47,0.00,,,0.00,207,weatherlink.com 1.10,2013-06-20 00:09:00,
2013-06-19 19:24:00,76.3,57.0,30.08,SW,221,0.0,0.0,52,0.00,,,0.00,148,weatherlink.com 1.10,2013-06-20 00:24:00,
2013-06-19 19:39:00,75.1,55.0,30.08,SW,221,0.0,0.0,49,0.00,,,0.00,91,weatherlink.com 1.10,2013-06-20 00:39:00,
2013-06-19 19:54:00,74.0,55.0,30.08,SW,221,0.0,0.0,52,0.00,,,0.00,58,weatherlink.com 1.10,2013-06-20 00:54:00,
2013-06-19 20:09:00,73.1,56.0,30.08,SW,221,0.0,0.0,56,0.00,,,0.00,33,weatherlink.com 1.10,2013-06-20 01:09:00,
2013-06-19 20:24:00,71.0,55.0,30.08,South,182,0.0,1.0,57,0.00,,,0.00,12,weatherlink.com 1.10,2013-06-20 01:24:00,
2013-06-19 20:39:00,69.2,55.0,30.08,South,182,0.0,1.0,60,0.00,,,0.00,0,weatherlink.com 1.10,2013-06-20 01:39:00,
2013-06-19 20:54:00,67.9,55.0,30.08,South,182,0.0,0.0,63,0.00,,,0.00,0,weatherlink.com 1.10,2013-06-20 01:54:00,
2013-06-19 21:09:00,66.7,55.0,30.09,South,182,0.0,0.0,67,0.00,,,0.00,0,weatherlink.com 1.10,2013-06-20 02:09:00,
2013-06-19 21:24:00,65.5,54.0,30.09,South,182,0.0,0.0,67,0.00,,,0.00,0,weatherlink.com 1.10,2013-06-20 02:24:00,
2013-06-19 21:39:00,64.5,53.0,30.10,South,169,0.0,1.0,67,0.00,,,0.00,0,weatherlink.com 1.10,2013-06-20 02:39:00,
2013-06-19 21:54:00,63.7,53.0,30.10,South,169,0.0,0.0,69,0.00,,,0.00,0,weatherlink.com 1.10,2013-06-20 02:54:00,
2013-06-19 22:09:00,63.0,53.0,30.10,South,169,0.0,0.0,69,0.00,,,0.00,0,weatherlink.com 1.10,2013-06-20 03:09:00,
2013-06-19 22:24:00,62.5,53.0,30.11,South,169,0.0,0.0,70,0.00,,,0.00,0,weatherlink.com 1.10,2013-06-20 03:24:00,
2013-06-19 22:39:00,62.0,52.0,30.11,South,169,0.0,1.0,71,0.00,,,0.00,0,weatherlink.com 1.10,2013-06-20 03:39:00,
2013-06-19 22:54:00,61.6,51.0,30.11,SSE,168,0.0,1.0,69,0.00,,,0.00,0,weatherlink.com 1.10,2013-06-20 03:54:00,
2013-06-19 23:09:00,61.6,50.0,30.11,SSE,168,0.0,0.0,67,0.00,,,0.00,0,weatherlink.com 1.10,2013-06-20 04:09:00,
2013-06-19 23:24:00,61.3,51.0,30.11,SSE,162,0.0,1.0,68,0.00,,,0.00,0,weatherlink.com 1.10,2013-06-20 04:24:00,
2013-06-19 23:39:00,60.8,50.0,30.11,SSE,162,0.0,0.0,68,0.00,,,0.00,0,weatherlink.com 1.10,2013-06-20 04:39:00,
2013-06-19 23:54:00,60.3,50.0,30.11,SSE,162,0.0,0.0,69,0.00,,,0.00,0,weatherlink.com 1.10,2013-06-20 04:54:00,